createdAt,value
2024-02-21T00:00:43.001Z,5.45
2024-02-21T00:03:11.402Z,6.35
2024-02-21T00:05:38.589Z,8.30
2024-02-21T00:08:06.155Z,8.18
2024-02-21T00:10:33.600Z,8.63
2024-02-21T00:13:03.437Z,11.30
2024-02-21T00:15:30.530Z,20.08
2024-02-21T00:17:57.420Z,28.73
2024-02-21T00:20:27.242Z,46.55
2024-02-21T00:22:54.464Z,36.78
2024-02-21T00:25:21.525Z,37.75
2024-02-21T00:27:48.476Z,23.63
2024-02-21T00:30:15.461Z,20.60
2024-02-21T00:32:42.369Z,15.50
2024-02-21T00:35:09.680Z,12.63
2024-02-21T00:37:38.132Z,7.82
2024-02-21T00:40:06.519Z,7.68
2024-02-21T00:42:33.327Z,6.33
2024-02-21T00:45:00.396Z,9.48
2024-02-21T00:47:27.391Z,5.95
2024-02-21T00:49:54.453Z,7.57
2024-02-21T00:52:21.490Z,7.15
2024-02-21T00:54:53.977Z,6.57
2024-02-21T00:57:21.933Z,8.73
2024-02-21T00:59:48.759Z,7.30
2024-02-21T01:02:15.893Z,7.80
2024-02-21T01:04:43.023Z,7.00
2024-02-21T01:07:09.848Z,6.83
2024-02-21T01:09:36.861Z,7.95
2024-02-21T01:12:05.383Z,8.48
2024-02-21T01:14:32.266Z,6.72
2024-02-21T01:16:59.198Z,7.88
2024-02-21T01:19:26.172Z,7.30
2024-02-21T01:21:53.141Z,8.45
2024-02-21T01:24:22.290Z,6.55
2024-02-21T01:26:49.398Z,5.90
2024-02-21T01:29:17.771Z,6.18
2024-02-21T01:31:44.713Z,7.10
2024-02-21T01:34:11.839Z,6.85
2024-02-21T01:36:38.780Z,7.80
2024-02-21T01:39:05.721Z,6.13
2024-02-21T01:41:32.850Z,6.05
2024-02-21T01:43:59.725Z,9.60
2024-02-21T01:46:32.164Z,7.72
2024-02-21T01:48:59.329Z,6.75
2024-02-21T01:51:26.820Z,7.85
2024-02-21T01:53:54.340Z,6.53
2024-02-21T01:56:21.263Z,8.63
2024-02-21T01:58:49.284Z,7.90
2024-02-21T02:01:18.873Z,9.68
2024-02-21T02:03:50.210Z,10.85
2024-02-21T02:06:17.741Z,10.02
2024-02-21T02:08:44.877Z,9.23
2024-02-21T02:11:12.291Z,9.45
2024-02-21T02:13:39.476Z,8.25
2024-02-21T02:16:06.569Z,8.50
2024-02-21T02:18:33.594Z,11.27
2024-02-21T02:21:02.236Z,8.03
2024-02-21T02:23:31.113Z,9.20
2024-02-21T02:25:58.460Z,10.57
2024-02-21T02:28:25.985Z,8.73
2024-02-21T02:30:53.093Z,9.02
2024-02-21T02:33:20.794Z,7.83
2024-02-21T02:35:48.084Z,8.70
2024-02-21T02:38:15.197Z,10.02
2024-02-21T02:40:43.926Z,8.82
2024-02-21T02:43:11.339Z,8.32
2024-02-21T02:45:38.292Z,8.57
2024-02-21T02:48:05.902Z,9.48
2024-02-21T02:50:33.625Z,8.85
2024-02-21T02:53:00.916Z,10.40
2024-02-21T02:55:28.297Z,8.00
2024-02-21T02:57:57.253Z,9.20
2024-02-21T03:00:24.453Z,9.60
2024-02-21T03:02:51.808Z,8.00
2024-02-21T03:05:20.059Z,7.88
2024-02-21T03:07:47.922Z,8.52
2024-02-21T03:10:15.424Z,8.87
2024-02-21T03:12:42.730Z,7.60
2024-02-21T03:15:12.025Z,8.73
2024-02-21T03:17:39.735Z,9.63
2024-02-21T03:20:10.285Z,10.13
2024-02-21T03:22:37.696Z,9.10
2024-02-21T03:25:04.869Z,6.97
2024-02-21T03:27:31.757Z,9.90
2024-02-21T03:29:58.648Z,7.63
2024-02-21T03:32:27.215Z,9.63
2024-02-21T03:34:54.588Z,9.03
2024-02-21T03:37:21.568Z,7.70
2024-02-21T03:39:48.522Z,8.27
2024-02-21T03:42:15.457Z,8.32
2024-02-21T03:44:42.374Z,8.65
2024-02-21T03:47:11.825Z,7.30
2024-02-21T03:49:40.741Z,9.07
2024-02-21T03:52:07.955Z,8.70
2024-02-21T03:54:34.911Z,7.93
2024-02-21T03:57:01.849Z,9.13
2024-02-21T03:59:28.766Z,9.60
2024-02-21T04:01:55.848Z,10.32
2024-02-21T04:04:23.022Z,9.18
2024-02-21T04:06:52.076Z,10.60
2024-02-21T04:09:19.084Z,11.00
2024-02-21T04:11:46.256Z,9.77
2024-02-21T04:14:13.272Z,11.23
2024-02-21T04:16:40.998Z,15.82
2024-02-21T04:19:08.919Z,12.43
2024-02-21T04:21:37.579Z,15.05
2024-02-21T04:24:07.304Z,17.37
2024-02-21T04:26:34.784Z,20.13
2024-02-21T04:29:02.478Z,17.48
2024-02-21T04:31:29.806Z,18.42
2024-02-21T04:33:56.969Z,16.77
2024-02-21T04:36:23.859Z,17.37
2024-02-21T04:38:51.527Z,17.58
2024-02-21T04:41:20.000Z,13.10
2024-02-21T04:43:47.635Z,12.93
2024-02-21T04:46:14.731Z,12.57
2024-02-21T04:48:41.920Z,11.40
2024-02-21T04:51:09.036Z,8.38
2024-02-21T04:53:37.832Z,8.90
2024-02-21T04:56:05.246Z,10.30
2024-02-21T04:58:33.828Z,9.73
2024-02-21T05:01:00.835Z,11.97
2024-02-21T05:03:27.839Z,10.18
2024-02-21T05:05:55.202Z,11.52
2024-02-21T05:08:22.442Z,12.20
2024-02-21T05:10:49.563Z,9.80
2024-02-21T05:13:16.964Z,11.80
2024-02-21T05:15:45.248Z,11.88
2024-02-21T05:18:12.642Z,12.50
2024-02-21T05:20:39.964Z,15.55
2024-02-21T05:23:07.138Z,15.30
2024-02-21T05:25:34.275Z,24.90
2024-02-21T05:28:03.484Z,18.95
2024-02-21T05:30:30.821Z,16.75
2024-02-21T05:32:59.287Z,14.63
2024-02-21T05:35:27.199Z,16.20
2024-02-21T05:37:54.230Z,18.30
2024-02-21T05:40:21.300Z,16.95
2024-02-21T05:42:48.238Z,18.02
2024-02-21T05:45:16.862Z,13.10
2024-02-21T05:47:44.053Z,14.63
2024-02-21T05:50:12.844Z,27.43
2024-02-21T05:52:39.801Z,24.48
2024-02-21T05:55:08.005Z,29.08
2024-02-21T05:57:35.068Z,26.05
2024-02-21T06:00:06.394Z,22.60
2024-02-21T06:02:33.430Z,27.37
2024-02-21T06:05:00.595Z,20.23
2024-02-21T06:07:29.103Z,19.73
2024-02-21T06:09:56.083Z,20.38
2024-02-21T06:12:23.026Z,21.08
2024-02-21T06:14:49.923Z,20.33
2024-02-21T06:17:17.072Z,23.08
2024-02-21T06:19:44.860Z,35.50
2024-02-21T06:22:12.034Z,30.45
2024-02-21T06:24:40.512Z,21.02
2024-02-21T06:27:10.720Z,15.73
2024-02-21T06:29:38.200Z,17.23
2024-02-21T06:32:05.458Z,13.98
2024-02-21T06:34:34.852Z,13.13
2024-02-21T06:37:02.115Z,14.27
2024-02-21T06:39:30.713Z,13.93
2024-02-21T06:42:02.346Z,12.52
2024-02-21T06:44:31.170Z,13.73
2024-02-21T06:47:00.299Z,14.55
2024-02-21T06:49:28.179Z,10.23
2024-02-21T06:51:55.217Z,12.30
2024-02-21T06:54:22.138Z,21.45
2024-02-21T06:56:49.084Z,36.63
2024-02-21T06:59:17.831Z,24.13
2024-02-21T07:01:46.278Z,18.77
2024-02-21T07:04:13.361Z,29.57
2024-02-21T07:06:40.600Z,27.63
2024-02-21T07:09:07.527Z,25.35
2024-02-21T07:11:34.756Z,38.28
2024-02-21T07:14:03.994Z,66.05
2024-02-21T07:16:33.977Z,24.47
2024-02-21T07:19:02.064Z,47.05
2024-02-21T07:21:30.167Z,51.25
2024-02-21T07:23:57.162Z,51.72
2024-02-21T07:26:24.119Z,45.67
2024-02-21T07:28:51.295Z,41.53
2024-02-21T07:31:18.545Z,34.58
2024-02-21T07:33:47.234Z,26.42
2024-02-21T07:36:16.648Z,27.52
2024-02-21T07:38:43.544Z,27.23
2024-02-21T07:41:10.968Z,30.17
2024-02-21T07:43:38.206Z,27.38
2024-02-21T07:46:18.608Z,31.58
2024-02-21T07:48:50.106Z,27.83
2024-02-21T07:51:20.739Z,29.98
2024-02-21T07:53:48.804Z,30.07
2024-02-21T07:56:16.565Z,28.35
2024-02-21T07:58:44.151Z,32.35
2024-02-21T08:01:12.837Z,25.98
2024-02-21T08:03:40.295Z,28.67
2024-02-21T08:06:12.996Z,24.30
2024-02-21T08:08:41.704Z,23.65
2024-02-21T08:11:08.759Z,20.42
2024-02-21T08:13:35.805Z,22.42
2024-02-21T08:16:03.183Z,27.70
2024-02-21T08:18:30.689Z,22.03
2024-02-21T08:20:57.697Z,23.70
2024-02-21T08:23:26.320Z,23.75
2024-02-21T08:25:53.211Z,26.38
2024-02-21T08:28:20.190Z,42.83
2024-02-21T08:30:49.663Z,40.80
2024-02-21T08:33:17.825Z,17.35
2024-02-21T08:35:44.929Z,23.30
2024-02-21T08:38:12.083Z,19.90
2024-02-21T08:40:40.452Z,15.85
2024-02-21T08:43:07.501Z,13.67
2024-02-21T08:45:34.557Z,14.10
2024-02-21T08:48:01.689Z,17.75
2024-02-21T08:50:29.939Z,15.10
2024-02-21T08:52:57.421Z,13.95
2024-02-21T08:55:25.677Z,17.37
2024-02-21T08:57:54.240Z,19.58
2024-02-21T09:00:25.687Z,16.52
2024-02-21T09:02:52.662Z,18.10
2024-02-21T09:05:20.561Z,20.45
2024-02-21T09:07:47.688Z,15.10
2024-02-21T09:10:14.702Z,14.73
2024-02-21T09:12:41.863Z,16.70
2024-02-21T09:15:11.923Z,27.08
2024-02-21T09:17:40.679Z,20.98
2024-02-21T09:20:09.285Z,22.30
2024-02-21T09:22:37.185Z,15.48
2024-02-21T09:25:05.119Z,11.55
2024-02-21T09:27:32.106Z,10.23
2024-02-21T09:29:59.287Z,9.75
2024-02-21T09:32:28.201Z,11.70
2024-02-21T09:34:59.030Z,8.23
2024-02-21T09:37:29.491Z,9.70
2024-02-21T09:40:00.293Z,9.40
2024-02-21T09:42:38.180Z,7.00
2024-02-21T09:45:08.557Z,11.77
2024-02-21T09:47:43.387Z,12.50
2024-02-21T09:50:10.769Z,10.00
2024-02-21T09:52:38.131Z,10.35
2024-02-21T09:55:06.340Z,9.52
2024-02-21T09:57:33.426Z,10.50
2024-02-21T10:00:01.744Z,9.48
2024-02-21T10:02:28.960Z,10.05
2024-02-21T10:05:00.000Z,8.55
2024-02-21T10:07:27.165Z,10.10
2024-02-21T10:10:01.481Z,11.23
2024-02-21T10:12:28.482Z,12.20
2024-02-21T10:15:01.192Z,10.07
2024-02-21T10:17:28.241Z,11.98
2024-02-21T10:19:55.226Z,9.45
2024-02-21T10:22:24.584Z,9.17
2024-02-21T10:24:56.296Z,8.43
2024-02-21T10:27:24.740Z,9.73
2024-02-21T10:29:54.403Z,8.38
2024-02-21T10:32:21.357Z,7.82
2024-02-21T10:34:53.241Z,9.40
2024-02-21T10:37:22.216Z,10.30
2024-02-21T10:39:51.243Z,10.05
2024-02-21T10:42:23.933Z,9.82
2024-02-21T10:44:52.714Z,9.35
2024-02-21T10:47:22.780Z,12.27
2024-02-21T10:49:52.257Z,9.65
2024-02-21T10:52:23.634Z,8.02
2024-02-21T10:54:58.194Z,6.88
2024-02-21T10:57:26.163Z,9.13
2024-02-21T10:59:54.655Z,8.47
2024-02-21T11:02:22.087Z,8.85
2024-02-21T11:04:49.931Z,8.18
2024-02-21T11:07:17.074Z,8.43
2024-02-21T11:09:51.791Z,8.00
2024-02-21T11:12:21.345Z,9.83
2024-02-21T11:14:48.289Z,6.97
2024-02-21T11:17:20.708Z,7.45
2024-02-21T11:19:48.524Z,9.13
2024-02-21T11:22:15.960Z,6.78
2024-02-21T11:24:44.205Z,8.57
2024-02-21T11:27:17.516Z,8.27
2024-02-21T11:29:46.217Z,7.10
2024-02-21T11:32:16.262Z,7.32
2024-02-21T11:34:43.463Z,6.80
2024-02-21T11:37:19.539Z,6.83
2024-02-21T11:39:48.776Z,7.28
2024-02-21T11:42:16.625Z,8.38
2024-02-21T11:44:43.950Z,9.25
2024-02-21T11:47:15.490Z,8.38
2024-02-21T11:49:44.622Z,7.33
2024-02-21T11:52:11.648Z,6.15
2024-02-21T11:54:38.556Z,6.97
2024-02-21T11:57:05.759Z,7.63
2024-02-21T11:59:33.125Z,10.75
2024-02-21T12:02:00.556Z,15.33
2024-02-21T12:04:29.915Z,8.48
2024-02-21T12:06:58.184Z,9.43
2024-02-21T12:09:25.603Z,9.07
2024-02-21T12:11:58.626Z,8.05
2024-02-21T12:14:27.446Z,10.17
2024-02-21T12:16:55.654Z,11.18
2024-02-21T12:19:22.824Z,12.93
2024-02-21T12:21:53.593Z,15.20
2024-02-21T12:24:23.329Z,9.38
2024-02-21T12:26:51.679Z,20.03
2024-02-21T12:29:18.876Z,8.95
2024-02-21T12:31:48.078Z,7.45
2024-02-21T12:34:16.501Z,7.90
2024-02-21T12:36:45.428Z,11.80
2024-02-21T12:39:16.055Z,8.10
2024-02-21T12:41:45.631Z,10.90
2024-02-21T12:44:17.297Z,10.88
2024-02-21T12:46:44.402Z,12.52
2024-02-21T12:49:11.602Z,8.35
2024-02-21T12:51:40.713Z,8.63
2024-02-21T12:54:07.703Z,8.88
2024-02-21T12:56:36.202Z,10.05
2024-02-21T12:59:05.935Z,10.32
2024-02-21T13:01:33.738Z,7.97
2024-02-21T13:04:02.308Z,10.80
2024-02-21T13:06:29.363Z,10.45
2024-02-21T13:08:57.785Z,9.18
2024-02-21T13:11:28.281Z,11.18
2024-02-21T13:13:56.810Z,8.45
2024-02-21T13:16:24.050Z,12.13
2024-02-21T13:18:51.284Z,9.65
2024-02-21T13:21:18.507Z,9.50
2024-02-21T13:23:45.737Z,8.80
2024-02-21T13:26:13.868Z,7.32
2024-02-21T13:28:41.029Z,10.43
2024-02-21T13:31:09.505Z,7.57
2024-02-21T13:33:37.975Z,11.07
2024-02-21T13:36:05.406Z,11.40
2024-02-21T13:38:32.387Z,9.63
2024-02-21T13:41:01.829Z,8.00
2024-02-21T13:43:29.205Z,8.48
2024-02-21T13:45:57.310Z,6.90
2024-02-21T13:48:26.059Z,7.38
2024-02-21T13:50:53.305Z,6.65
2024-02-21T13:53:20.187Z,8.00
2024-02-21T13:55:47.311Z,11.25
2024-02-21T13:58:14.744Z,8.90
2024-02-21T14:00:41.686Z,9.30
2024-02-21T14:03:11.146Z,17.00
2024-02-21T14:05:43.422Z,11.23
2024-02-21T14:08:11.163Z,11.95
2024-02-21T14:10:38.859Z,11.45
2024-02-21T14:13:06.129Z,10.18
2024-02-21T14:15:33.615Z,11.73
2024-02-21T14:18:00.609Z,10.00
2024-02-21T14:20:29.210Z,8.48
2024-02-21T14:22:58.297Z,7.05
2024-02-21T14:25:25.729Z,7.68
2024-02-21T14:27:53.127Z,11.68
2024-02-21T14:30:19.964Z,12.20
2024-02-21T14:32:47.172Z,8.18
2024-02-21T14:35:14.695Z,6.78
2024-02-21T14:37:41.963Z,7.35
2024-02-21T14:40:11.050Z,9.85
2024-02-21T14:42:38.067Z,9.93
2024-02-21T14:45:06.298Z,11.90
2024-02-21T14:47:33.601Z,9.60
2024-02-21T14:50:01.285Z,9.25
2024-02-21T14:52:31.216Z,11.68
2024-02-21T14:54:58.475Z,9.93
2024-02-21T14:57:26.867Z,9.20
2024-02-21T14:59:57.916Z,13.20
2024-02-21T15:02:25.020Z,16.58
2024-02-21T15:04:52.978Z,9.45
2024-02-21T15:07:21.310Z,17.53
2024-02-21T15:09:48.622Z,15.63
2024-02-21T15:12:16.321Z,10.73
2024-02-21T15:14:44.835Z,11.98
2024-02-21T15:17:12.136Z,15.27
2024-02-21T15:19:40.529Z,10.50
2024-02-21T15:22:07.702Z,16.85
2024-02-21T15:24:35.280Z,15.07
2024-02-21T15:27:02.212Z,11.57
2024-02-21T15:29:29.286Z,11.95
2024-02-21T15:31:57.645Z,10.73
2024-02-21T15:34:24.738Z,12.15
2024-02-21T15:36:52.185Z,10.77
2024-02-21T15:39:19.077Z,14.05
2024-02-21T15:41:46.039Z,11.73
2024-02-21T15:44:13.032Z,14.33
2024-02-21T15:46:40.097Z,14.73
2024-02-21T15:49:09.191Z,14.73
2024-02-21T15:51:36.287Z,12.95
2024-02-21T15:54:03.551Z,13.40
2024-02-21T15:56:30.543Z,12.90
2024-02-21T15:58:57.611Z,10.60
2024-02-21T16:01:24.882Z,8.82
2024-02-21T16:03:52.299Z,11.48
2024-02-21T16:06:20.789Z,16.15
2024-02-21T16:08:51.164Z,14.77
2024-02-21T16:11:18.970Z,14.10
2024-02-21T16:13:47.850Z,14.98
2024-02-21T16:16:14.929Z,13.23
2024-02-21T16:18:41.934Z,13.32
2024-02-21T16:21:09.636Z,12.10
2024-02-21T16:23:38.428Z,17.88
2024-02-21T16:26:05.714Z,22.05
2024-02-21T16:28:33.047Z,26.98
2024-02-21T16:31:01.864Z,25.10
2024-02-21T16:33:28.942Z,21.67
2024-02-21T16:35:56.144Z,17.83
2024-02-21T16:38:23.252Z,19.35
2024-02-21T16:40:51.723Z,21.83
2024-02-21T16:43:18.959Z,19.13
2024-02-21T16:45:45.905Z,23.97
2024-02-21T16:48:13.844Z,23.23
2024-02-21T16:50:48.965Z,23.05
2024-02-21T16:53:22.111Z,22.85
2024-02-21T16:55:50.095Z,19.90
2024-02-21T16:58:18.642Z,18.83
2024-02-21T17:00:45.623Z,17.70
2024-02-21T17:03:12.726Z,20.58
2024-02-21T17:05:39.760Z,20.45
2024-02-21T17:08:10.478Z,24.40
2024-02-21T17:10:37.937Z,19.00
2024-02-21T17:13:06.416Z,22.73
2024-02-21T17:15:34.766Z,21.20
2024-02-21T17:18:01.627Z,19.00
2024-02-21T17:20:28.770Z,21.75
2024-02-21T17:22:55.744Z,24.50
2024-02-21T17:25:23.149Z,25.05
2024-02-21T17:27:51.245Z,22.13
2024-02-21T17:30:18.538Z,21.00
2024-02-21T17:32:46.896Z,21.98
2024-02-21T17:35:15.102Z,19.37
2024-02-21T17:37:43.651Z,20.73
2024-02-21T17:40:11.114Z,21.67
2024-02-21T17:42:37.972Z,20.75
2024-02-21T17:45:05.325Z,20.67
2024-02-21T17:47:32.481Z,23.67
2024-02-21T17:50:00.961Z,18.23
2024-02-21T17:52:28.733Z,17.77
2024-02-21T17:54:58.486Z,19.48
2024-02-21T17:57:26.870Z,16.73
2024-02-21T17:59:54.887Z,27.30
2024-02-21T18:02:25.328Z,21.70
2024-02-21T18:04:52.790Z,18.60
2024-02-21T18:07:25.354Z,20.10
2024-02-21T18:09:52.358Z,21.35
2024-02-21T18:12:19.566Z,20.97
2024-02-21T18:14:47.137Z,23.42
2024-02-21T18:17:16.077Z,27.45
2024-02-21T18:19:43.533Z,27.45
2024-02-21T18:22:10.821Z,23.92
2024-02-21T18:24:39.471Z,25.60
2024-02-21T18:27:08.803Z,23.58
2024-02-21T18:29:40.583Z,25.02
2024-02-21T18:32:11.671Z,23.80
2024-02-21T18:34:39.264Z,26.05
2024-02-21T18:37:06.754Z,26.67
2024-02-21T18:39:35.349Z,25.75
2024-02-21T18:42:04.621Z,21.75
2024-02-21T18:44:31.667Z,22.27
2024-02-21T18:46:58.715Z,21.23
2024-02-21T18:49:25.765Z,26.43
2024-02-21T18:51:52.824Z,16.83
2024-02-21T18:54:19.730Z,18.48
2024-02-21T18:56:46.683Z,22.58
2024-02-21T18:59:15.235Z,19.80
2024-02-21T19:01:42.227Z,29.70
2024-02-21T19:04:09.321Z,29.15
2024-02-21T19:06:36.653Z,37.55
2024-02-21T19:09:04.826Z,39.05
2024-02-21T19:11:32.094Z,36.05
2024-02-21T19:13:59.190Z,38.77
2024-02-21T19:16:30.121Z,35.63
2024-02-21T19:18:57.629Z,34.85
2024-02-21T19:21:24.985Z,31.73
2024-02-21T19:23:53.110Z,30.35
2024-02-21T19:26:20.310Z,28.90
2024-02-21T19:28:50.721Z,22.88
2024-02-21T19:31:18.113Z,20.90
2024-02-21T19:33:47.349Z,20.33
2024-02-21T19:36:14.664Z,17.80
2024-02-21T19:38:42.973Z,19.13
2024-02-21T19:41:10.070Z,16.90
2024-02-21T19:43:38.355Z,15.48
2024-02-21T19:46:05.548Z,17.17
2024-02-21T19:48:32.633Z,14.63
2024-02-21T19:51:01.460Z,15.70
2024-02-21T19:53:29.253Z,17.00
2024-02-21T19:55:56.192Z,14.95
2024-02-21T19:58:23.373Z,15.18
2024-02-21T20:00:50.347Z,14.07
2024-02-21T20:03:17.319Z,13.10
2024-02-21T20:05:48.041Z,14.13
2024-02-21T20:08:18.845Z,12.77
2024-02-21T20:10:46.197Z,18.13
2024-02-21T20:13:14.498Z,13.48
2024-02-21T20:15:43.198Z,15.60
2024-02-21T20:18:13.333Z,13.43
2024-02-21T20:20:42.024Z,16.35
2024-02-21T20:23:15.972Z,17.60
2024-02-21T20:25:44.534Z,20.52
2024-02-21T20:28:13.160Z,24.10
2024-02-21T20:30:40.301Z,22.77
2024-02-21T20:33:08.639Z,23.48
2024-02-21T20:35:36.056Z,27.02
2024-02-21T20:38:04.677Z,27.00
2024-02-21T20:40:31.836Z,22.60
2024-02-21T20:43:00.207Z,23.98
2024-02-21T20:45:27.417Z,16.42
2024-02-21T20:47:54.359Z,18.38
2024-02-21T20:50:23.381Z,20.90
2024-02-21T20:52:50.483Z,18.20
2024-02-21T20:55:18.060Z,21.90
2024-02-21T20:57:45.627Z,35.30
2024-02-21T21:00:14.924Z,33.03
2024-02-21T21:02:41.809Z,27.45
2024-02-21T21:05:09.954Z,21.37
2024-02-21T21:07:39.540Z,21.67
2024-02-21T21:10:09.493Z,18.58
2024-02-21T21:12:36.765Z,15.93
2024-02-21T21:15:06.132Z,13.23
2024-02-21T21:17:34.956Z,12.03
2024-02-21T21:20:14.228Z,13.50
2024-02-21T21:22:42.496Z,13.30
2024-02-21T21:25:12.826Z,12.95
2024-02-21T21:27:41.749Z,14.88
2024-02-21T21:30:09.389Z,13.37
2024-02-21T21:32:38.766Z,12.38
2024-02-21T21:35:06.262Z,13.27
2024-02-21T21:37:34.429Z,14.23
2024-02-21T21:40:01.334Z,10.57
2024-02-21T21:42:28.343Z,11.03
2024-02-21T21:44:55.272Z,10.77
2024-02-21T21:47:22.207Z,11.43
2024-02-21T21:49:50.663Z,12.13
2024-02-21T21:52:17.616Z,9.73
2024-02-21T21:54:44.632Z,12.60
2024-02-21T21:57:11.661Z,10.13
2024-02-21T21:59:38.808Z,13.63
2024-02-21T22:02:06.537Z,11.20
2024-02-21T22:04:33.620Z,13.95
2024-02-21T22:07:02.072Z,11.83
2024-02-21T22:09:29.069Z,10.43
2024-02-21T22:11:56.845Z,10.55
2024-02-21T22:14:23.907Z,11.02
2024-02-21T22:16:51.134Z,10.90
2024-02-21T22:19:18.142Z,10.27
2024-02-21T22:21:45.206Z,10.77
2024-02-21T22:24:13.531Z,10.68
2024-02-21T22:26:40.458Z,11.07
2024-02-21T22:29:07.706Z,10.95
2024-02-21T22:31:34.738Z,8.83
2024-02-21T22:34:01.819Z,12.18
2024-02-21T22:36:28.881Z,11.27
2024-02-21T22:38:55.805Z,11.57
2024-02-21T22:41:24.444Z,9.38
2024-02-21T22:43:51.536Z,10.77
2024-02-21T22:46:18.652Z,11.25
2024-02-21T22:48:46.794Z,9.27
2024-02-21T22:51:13.714Z,8.75
2024-02-21T22:53:40.597Z,10.93
2024-02-21T22:56:08.256Z,10.10
2024-02-21T22:58:36.663Z,9.85
2024-02-21T23:01:04.113Z,10.32
2024-02-21T23:03:31.416Z,8.73
2024-02-21T23:05:59.810Z,10.75
2024-02-21T23:08:26.775Z,9.70
2024-02-21T23:10:56.777Z,11.23
2024-02-21T23:13:24.334Z,7.97
2024-02-21T23:15:52.895Z,10.15
2024-02-21T23:18:19.921Z,8.30
2024-02-21T23:20:49.999Z,6.97
2024-02-21T23:23:17.004Z,8.48
2024-02-21T23:25:44.149Z,12.43
2024-02-21T23:28:11.114Z,10.63
2024-02-21T23:30:39.338Z,11.73
2024-02-21T23:33:07.851Z,9.77
2024-02-21T23:35:39.015Z,8.45
2024-02-21T23:38:08.350Z,8.50
2024-02-21T23:40:35.356Z,10.15
2024-02-21T23:43:02.362Z,9.05
2024-02-21T23:45:29.270Z,9.47
2024-02-21T23:47:56.217Z,9.18
2024-02-21T23:50:25.958Z,8.32
2024-02-21T23:52:53.075Z,8.07
2024-02-21T23:55:20.046Z,10.93
2024-02-21T23:57:48.741Z,9.70
